sensor_id;sensor_type;location;lat;lon;timestamp;pressure;altitude;pressure_sealevel;temperature;humidity
72262;BME280;60173;52.112;8.648;2023-08-21T00:01:28;101283.56;;;17.22;91.43
72262;BME280;60173;52.112;8.648;2023-08-21T00:03:55;101287.41;;;17.38;90.10
72262;BME280;60173;52.112;8.648;2023-08-21T00:06:21;101280.16;;;17.51;88.75
72262;BME280;60173;52.112;8.648;2023-08-21T00:08:48;101279.16;;;17.38;89.05
72262;BME280;60173;52.112;8.648;2023-08-21T00:11:14;101276.91;;;17.23;90.62
72262;BME280;60173;52.112;8.648;2023-08-21T00:13:41;101284.00;;;17.32;90.53
72262;BME280;60173;52.112;8.648;2023-08-21T00:16:07;101280.31;;;17.37;90.49
72262;BME280;60173;52.112;8.648;2023-08-21T00:18:33;101271.28;;;17.19;90.88
72262;BME280;60173;52.112;8.648;2023-08-21T00:21:00;101278.19;;;16.99;93.11
72262;BME280;60173;52.112;8.648;2023-08-21T00:23:26;101272.56;;;17.04;93.48
72262;BME280;60173;52.112;8.648;2023-08-21T00:25:53;101274.81;;;17.02;93.13
72262;BME280;60173;52.112;8.648;2023-08-21T00:28:19;101267.88;;;16.96;93.66
72262;BME280;60173;52.112;8.648;2023-08-21T00:30:45;101284.16;;;16.84;94.08
72262;BME280;60173;52.112;8.648;2023-08-21T00:33:12;101282.25;;;16.93;94.04
72262;BME280;60173;52.112;8.648;2023-08-21T00:35:38;101267.38;;;17.03;93.24
72262;BME280;60173;52.112;8.648;2023-08-21T00:38:05;101262.22;;;16.84;93.40
72262;BME280;60173;52.112;8.648;2023-08-21T00:40:31;101276.97;;;16.65;95.43
72262;BME280;60173;52.112;8.648;2023-08-21T00:42:58;101271.50;;;16.65;95.63
72262;BME280;60173;52.112;8.648;2023-08-21T00:45:24;101276.66;;;16.67;95.34
72262;BME280;60173;52.112;8.648;2023-08-21T00:47:51;101264.06;;;16.66;95.09
72262;BME280;60173;52.112;8.648;2023-08-21T00:50:17;101268.97;;;16.78;94.71
72262;BME280;60173;52.112;8.648;2023-08-21T00:52:45;101261.06;;;16.85;94.22
72262;BME280;60173;52.112;8.648;2023-08-21T00:55:12;101265.59;;;16.81;93.74
72262;BME280;60173;52.112;8.648;2023-08-21T00:57:39;101272.31;;;16.75;94.27
72262;BME280;60173;52.112;8.648;2023-08-21T01:00:06;101267.94;;;16.65;95.17
72262;BME280;60173;52.112;8.648;2023-08-21T01:02:33;101268.75;;;16.65;95.59
72262;BME280;60173;52.112;8.648;2023-08-21T01:04:59;101267.63;;;16.58;95.95
72262;BME280;60173;52.112;8.648;2023-08-21T01:07:26;101264.25;;;16.69;95.86
72262;BME280;60173;52.112;8.648;2023-08-21T01:10:22;101270.06;;;16.68;94.97
72262;BME280;60173;52.112;8.648;2023-08-21T01:13:55;101291.97;;;16.59;94.71
72262;BME280;60173;52.112;8.648;2023-08-21T01:15:53;101305.84;;;16.63;95.26
72262;BME280;60173;52.112;8.648;2023-08-21T01:18:22;101303.75;;;16.68;94.99
72262;BME280;60173;52.112;8.648;2023-08-21T01:20:48;101297.81;;;16.66;94.31
72262;BME280;60173;52.112;8.648;2023-08-21T01:23:34;101294.00;;;16.85;92.69
72262;BME280;60173;52.112;8.648;2023-08-21T01:26:01;101294.66;;;16.99;92.18
72262;BME280;60173;52.112;8.648;2023-08-21T01:28:28;101301.44;;;16.93;92.21
72262;BME280;60173;52.112;8.648;2023-08-21T01:31:03;101292.88;;;16.86;93.02
72262;BME280;60173;52.112;8.648;2023-08-21T01:33:33;101297.91;;;17.01;92.66
72262;BME280;60173;52.112;8.648;2023-08-21T01:36:02;101300.97;;;17.17;91.18
72262;BME280;60173;52.112;8.648;2023-08-21T01:38:33;101304.53;;;17.17;90.71
72262;BME280;60173;52.112;8.648;2023-08-21T01:40:59;101299.03;;;17.00;92.85
72262;BME280;60173;52.112;8.648;2023-08-21T01:43:26;101306.94;;;16.93;94.30
72262;BME280;60173;52.112;8.648;2023-08-21T01:45:52;101307.25;;;17.00;94.56
72262;BME280;60173;52.112;8.648;2023-08-21T01:48:19;101305.97;;;17.06;93.96
72262;BME280;60173;52.112;8.648;2023-08-21T01:50:45;101305.66;;;17.16;93.98
72262;BME280;60173;52.112;8.648;2023-08-21T01:53:12;101297.75;;;17.24;93.79
72262;BME280;60173;52.112;8.648;2023-08-21T01:55:38;101303.41;;;17.36;91.91
72262;BME280;60173;52.112;8.648;2023-08-21T01:58:04;101293.53;;;17.52;88.84
72262;BME280;60173;52.112;8.648;2023-08-21T02:00:31;101293.38;;;17.66;88.78
72262;BME280;60173;52.112;8.648;2023-08-21T02:02:57;101291.41;;;17.67;89.47
72262;BME280;60173;52.112;8.648;2023-08-21T02:05:24;101292.09;;;17.46;90.84
72262;BME280;60173;52.112;8.648;2023-08-21T02:07:50;101294.84;;;17.29;91.66
72262;BME280;60173;52.112;8.648;2023-08-21T02:10:16;101292.09;;;17.11;93.69
72262;BME280;60173;52.112;8.648;2023-08-21T02:12:43;101292.91;;;17.29;93.75
72262;BME280;60173;52.112;8.648;2023-08-21T02:15:10;101294.53;;;17.39;93.31
72262;BME280;60173;52.112;8.648;2023-08-21T02:17:36;101290.81;;;17.44;93.46
72262;BME280;60173;52.112;8.648;2023-08-21T02:20:03;101286.94;;;17.53;92.31
72262;BME280;60173;52.112;8.648;2023-08-21T02:22:30;101290.94;;;17.56;91.46
72262;BME280;60173;52.112;8.648;2023-08-21T02:24:56;101291.13;;;17.59;91.22
72262;BME280;60173;52.112;8.648;2023-08-21T02:27:22;101281.59;;;17.57;91.85
72262;BME280;60173;52.112;8.648;2023-08-21T02:29:49;101280.47;;;17.49;92.50
72262;BME280;60173;52.112;8.648;2023-08-21T02:32:15;101276.25;;;17.43;92.61
72262;BME280;60173;52.112;8.648;2023-08-21T02:34:42;101280.63;;;17.35;92.76
72262;BME280;60173;52.112;8.648;2023-08-21T02:37:08;101280.16;;;17.33;92.94
72262;BME280;60173;52.112;8.648;2023-08-21T02:39:35;101276.25;;;17.43;92.58
72262;BME280;60173;52.112;8.648;2023-08-21T02:42:01;101271.56;;;17.44;92.06
72262;BME280;60173;52.112;8.648;2023-08-21T02:44:27;101274.66;;;17.51;92.29
72262;BME280;60173;52.112;8.648;2023-08-21T02:46:54;101280.13;;;17.59;91.64
72262;BME280;60173;52.112;8.648;2023-08-21T02:49:20;101276.09;;;17.66;91.14
72262;BME280;60173;52.112;8.648;2023-08-21T02:51:47;101273.34;;;17.57;91.06
72262;BME280;60173;52.112;8.648;2023-08-21T02:54:13;101281.75;;;17.43;92.75
72262;BME280;60173;52.112;8.648;2023-08-21T02:56:39;101279.97;;;17.47;92.87
72262;BME280;60173;52.112;8.648;2023-08-21T02:59:06;101271.72;;;17.47;92.70
72262;BME280;60173;52.112;8.648;2023-08-21T03:01:32;101272.38;;;17.44;93.24
72262;BME280;60173;52.112;8.648;2023-08-21T03:03:58;101279.97;;;17.21;93.93
72262;BME280;60173;52.112;8.648;2023-08-21T03:06:25;101279.00;;;17.00;95.16
72262;BME280;60173;52.112;8.648;2023-08-21T03:08:51;101278.34;;;16.94;96.15
72262;BME280;60173;52.112;8.648;2023-08-21T03:11:18;101289.81;;;16.96;95.80
72262;BME280;60173;52.112;8.648;2023-08-21T03:13:44;101290.13;;;17.03;95.77
72262;BME280;60173;52.112;8.648;2023-08-21T03:16:10;101290.50;;;17.10;95.17
72262;BME280;60173;52.112;8.648;2023-08-21T03:18:54;101282.91;;;16.99;94.86
72262;BME280;60173;52.112;8.648;2023-08-21T03:21:22;101283.34;;;16.92;95.40
72262;BME280;60173;52.112;8.648;2023-08-21T03:23:55;101287.06;;;16.79;96.34
72262;BME280;60173;52.112;8.648;2023-08-21T03:26:22;101292.72;;;16.91;95.59
72262;BME280;60173;52.112;8.648;2023-08-21T03:28:49;101284.19;;;16.92;94.83
72262;BME280;60173;52.112;8.648;2023-08-21T03:31:16;101284.63;;;16.86;94.76
72262;BME280;60173;52.112;8.648;2023-08-21T03:33:42;101287.06;;;16.87;95.07
72262;BME280;60173;52.112;8.648;2023-08-21T03:36:08;101280.13;;;16.90;95.24
72262;BME280;60173;52.112;8.648;2023-08-21T03:38:35;101267.72;;;16.92;95.03
72262;BME280;60173;52.112;8.648;2023-08-21T03:41:02;101272.84;;;16.77;95.80
72262;BME280;60173;52.112;8.648;2023-08-21T03:43:28;101269.56;;;16.66;96.57
72262;BME280;60173;52.112;8.648;2023-08-21T03:45:54;101275.53;;;16.68;96.27
72262;BME280;60173;52.112;8.648;2023-08-21T03:48:21;101278.91;;;16.65;96.22
72262;BME280;60173;52.112;8.648;2023-08-21T03:50:49;101281.00;;;16.59;96.33
72262;BME280;60173;52.112;8.648;2023-08-21T03:53:15;101285.56;;;16.72;96.20
72262;BME280;60173;52.112;8.648;2023-08-21T03:55:41;101283.16;;;16.80;95.86
72262;BME280;60173;52.112;8.648;2023-08-21T03:58:08;101282.38;;;16.88;95.72
72262;BME280;60173;52.112;8.648;2023-08-21T04:00:34;101275.63;;;16.94;95.44
72262;BME280;60173;52.112;8.648;2023-08-21T04:03:01;101277.56;;;17.02;94.87
72262;BME280;60173;52.112;8.648;2023-08-21T04:05:27;101275.63;;;17.11;94.53
72262;BME280;60173;52.112;8.648;2023-08-21T04:07:53;101274.47;;;17.04;94.43
72262;BME280;60173;52.112;8.648;2023-08-21T04:10:20;101269.81;;;17.04;94.63
72262;BME280;60173;52.112;8.648;2023-08-21T04:12:46;101281.75;;;17.08;93.67
72262;BME280;60173;52.112;8.648;2023-08-21T04:15:12;101288.50;;;16.85;94.03
72262;BME280;60173;52.112;8.648;2023-08-21T04:17:39;101299.88;;;16.52;96.44
72262;BME280;60173;52.112;8.648;2023-08-21T04:20:06;101291.03;;;16.72;96.12
72262;BME280;60173;52.112;8.648;2023-08-21T04:22:32;101288.34;;;16.81;95.48
72262;BME280;60173;52.112;8.648;2023-08-21T04:25:00;101293.34;;;16.88;94.99
72262;BME280;60173;52.112;8.648;2023-08-21T04:27:26;101297.56;;;16.94;94.50
72262;BME280;60173;52.112;8.648;2023-08-21T04:29:53;101298.88;;;17.05;93.96
72262;BME280;60173;52.112;8.648;2023-08-21T04:32:19;101291.59;;;17.01;94.36
72262;BME280;60173;52.112;8.648;2023-08-21T04:34:46;101295.44;;;16.82;96.32
72262;BME280;60173;52.112;8.648;2023-08-21T04:37:12;101298.22;;;17.00;96.14
72262;BME280;60173;52.112;8.648;2023-08-21T04:39:38;101300.34;;;17.20;95.34
72262;BME280;60173;52.112;8.648;2023-08-21T04:42:05;101306.97;;;17.28;95.12
72262;BME280;60173;52.112;8.648;2023-08-21T04:44:31;101311.16;;;17.34;94.35
72262;BME280;60173;52.112;8.648;2023-08-21T04:47:26;101313.41;;;17.32;94.08
72262;BME280;60173;52.112;8.648;2023-08-21T04:49:54;101310.19;;;17.47;94.04
72262;BME280;60173;52.112;8.648;2023-08-21T04:52:21;101305.97;;;17.58;93.37
72262;BME280;60173;52.112;8.648;2023-08-21T04:54:48;101312.28;;;17.59;92.65
72262;BME280;60173;52.112;8.648;2023-08-21T04:57:15;101319.91;;;17.45;93.52
72262;BME280;60173;52.112;8.648;2023-08-21T04:59:43;101319.25;;;17.56;93.19
72262;BME280;60173;52.112;8.648;2023-08-21T05:02:10;101316.31;;;17.61;92.71
72262;BME280;60173;52.112;8.648;2023-08-21T05:04:36;101308.88;;;17.71;91.52
72262;BME280;60173;52.112;8.648;2023-08-21T05:07:04;101312.44;;;17.80;90.11
72262;BME280;60173;52.112;8.648;2023-08-21T05:09:31;101309.22;;;17.78;90.46
72262;BME280;60173;52.112;8.648;2023-08-21T05:11:57;101313.22;;;17.98;89.95
72262;BME280;60173;52.112;8.648;2023-08-21T05:14:24;101317.34;;;18.21;88.27
72262;BME280;60173;52.112;8.648;2023-08-21T05:16:51;101325.28;;;18.23;87.39
72262;BME280;60173;52.112;8.648;2023-08-21T05:19:17;101321.38;;;18.24;87.32
72262;BME280;60173;52.112;8.648;2023-08-21T05:21:45;101325.06;;;18.28;88.13
72262;BME280;60173;52.112;8.648;2023-08-21T05:24:11;101315.06;;;18.32;88.05
72262;BME280;60173;52.112;8.648;2023-08-21T05:26:38;101320.25;;;18.25;88.06
72262;BME280;60173;52.112;8.648;2023-08-21T05:29:04;101317.72;;;18.11;88.62
72262;BME280;60173;52.112;8.648;2023-08-21T05:31:31;101314.63;;;18.13;88.98
72262;BME280;60173;52.112;8.648;2023-08-21T05:33:57;101316.88;;;18.11;89.15
72262;BME280;60173;52.112;8.648;2023-08-21T05:36:24;101322.38;;;18.11;89.55
72262;BME280;60173;52.112;8.648;2023-08-21T05:38:50;101332.88;;;18.26;89.02
72262;BME280;60173;52.112;8.648;2023-08-21T05:41:17;101332.50;;;18.66;87.58
72262;BME280;60173;52.112;8.648;2023-08-21T05:43:43;101335.31;;;18.95;85.57
72262;BME280;60173;52.112;8.648;2023-08-21T05:46:10;101333.13;;;19.10;84.39
72262;BME280;60173;52.112;8.648;2023-08-21T05:48:36;101335.47;;;19.20;84.40
72262;BME280;60173;52.112;8.648;2023-08-21T05:51:03;101331.84;;;19.28;83.52
72262;BME280;60173;52.112;8.648;2023-08-21T05:53:29;101334.41;;;19.33;82.40
72262;BME280;60173;52.112;8.648;2023-08-21T05:55:55;101334.66;;;19.40;81.60
72262;BME280;60173;52.112;8.648;2023-08-21T05:58:22;101330.34;;;19.52;80.56
72262;BME280;60173;52.112;8.648;2023-08-21T06:00:48;101335.25;;;19.46;79.94
72262;BME280;60173;52.112;8.648;2023-08-21T06:03:15;101327.13;;;19.29;79.95
72262;BME280;60173;52.112;8.648;2023-08-21T06:05:41;101324.44;;;19.20;80.72
72262;BME280;60173;52.112;8.648;2023-08-21T06:08:08;101331.91;;;18.99;81.55
72262;BME280;60173;52.112;8.648;2023-08-21T06:10:34;101331.41;;;18.96;83.82
72262;BME280;60173;52.112;8.648;2023-08-21T06:13:00;101338.16;;;19.08;83.99
72262;BME280;60173;52.112;8.648;2023-08-21T06:15:27;101331.16;;;19.31;83.63
72262;BME280;60173;52.112;8.648;2023-08-21T06:17:53;101334.38;;;19.54;82.37
72262;BME280;60173;52.112;8.648;2023-08-21T06:20:20;101341.56;;;19.89;80.65
72262;BME280;60173;52.112;8.648;2023-08-21T06:22:46;101333.00;;;20.27;79.02
72262;BME280;60173;52.112;8.648;2023-08-21T06:25:13;101340.75;;;20.83;77.29
72262;BME280;60173;52.112;8.648;2023-08-21T06:27:39;101344.38;;;21.36;75.27
72262;BME280;60173;52.112;8.648;2023-08-21T06:30:23;101346.44;;;21.79;73.03
72262;BME280;60173;52.112;8.648;2023-08-21T06:32:49;101346.94;;;22.13;72.26
72262;BME280;60173;52.112;8.648;2023-08-21T06:35:16;101346.00;;;22.37;71.93
72262;BME280;60173;52.112;8.648;2023-08-21T06:37:43;101350.91;;;22.28;70.92
72262;BME280;60173;52.112;8.648;2023-08-21T06:40:09;101352.06;;;22.27;71.45
72262;BME280;60173;52.112;8.648;2023-08-21T06:42:36;101357.31;;;22.16;72.06
72262;BME280;60173;52.112;8.648;2023-08-21T06:45:06;101355.84;;;22.06;72.96
72262;BME280;60173;52.112;8.648;2023-08-21T06:47:33;101352.91;;;21.99;73.54
72262;BME280;60173;52.112;8.648;2023-08-21T06:49:59;101352.78;;;21.96;73.93
72262;BME280;60173;52.112;8.648;2023-08-21T06:52:26;101347.13;;;22.04;73.81
72262;BME280;60173;52.112;8.648;2023-08-21T06:54:52;101349.28;;;22.27;72.64
72262;BME280;60173;52.112;8.648;2023-08-21T06:57:19;101353.31;;;22.45;71.62
72262;BME280;60173;52.112;8.648;2023-08-21T06:59:45;101352.66;;;22.68;70.92
72262;BME280;60173;52.112;8.648;2023-08-21T07:02:11;101352.38;;;23.05;69.54
72262;BME280;60173;52.112;8.648;2023-08-21T07:04:38;101359.44;;;23.57;68.36
72262;BME280;60173;52.112;8.648;2023-08-21T07:07:04;101343.88;;;23.91;67.24
72262;BME280;60173;52.112;8.648;2023-08-21T07:09:31;101344.78;;;24.18;66.43
72262;BME280;60173;52.112;8.648;2023-08-21T07:11:57;101340.84;;;24.19;65.16
72262;BME280;60173;52.112;8.648;2023-08-21T07:14:24;101344.16;;;24.28;65.09
72262;BME280;60173;52.112;8.648;2023-08-21T07:16:50;101346.03;;;23.78;65.51
72262;BME280;60173;52.112;8.648;2023-08-21T07:19:17;101353.41;;;23.71;66.25
72262;BME280;60173;52.112;8.648;2023-08-21T07:21:43;101344.84;;;23.40;66.37
72262;BME280;60173;52.112;8.648;2023-08-21T07:24:09;101342.22;;;22.77;66.24
72262;BME280;60173;52.112;8.648;2023-08-21T07:26:36;101352.69;;;22.36;66.82
72262;BME280;60173;52.112;8.648;2023-08-21T07:29:02;101352.78;;;22.55;66.42
72262;BME280;60173;52.112;8.648;2023-08-21T07:31:29;101352.66;;;22.04;68.30
72262;BME280;60173;52.112;8.648;2023-08-21T07:33:55;101351.50;;;21.77;68.01
72262;BME280;60173;52.112;8.648;2023-08-21T07:36:21;101349.59;;;21.65;68.99
72262;BME280;60173;52.112;8.648;2023-08-21T07:38:49;101349.69;;;21.69;67.50
72262;BME280;60173;52.112;8.648;2023-08-21T07:41:15;101352.03;;;21.55;68.81
72262;BME280;60173;52.112;8.648;2023-08-21T07:43:43;101360.03;;;21.44;68.46
72262;BME280;60173;52.112;8.648;2023-08-21T07:46:11;101350.16;;;21.71;68.46
72262;BME280;60173;52.112;8.648;2023-08-21T07:48:39;101355.13;;;21.65;67.34
72262;BME280;60173;52.112;8.648;2023-08-21T07:51:05;101358.50;;;21.59;65.49
72262;BME280;60173;52.112;8.648;2023-08-21T07:53:32;101346.88;;;21.53;65.50
72262;BME280;60173;52.112;8.648;2023-08-21T07:55:58;101351.66;;;21.69;67.11
72262;BME280;60173;52.112;8.648;2023-08-21T07:58:25;101353.03;;;22.19;65.44
72262;BME280;60173;52.112;8.648;2023-08-21T08:00:51;101353.31;;;22.01;65.83
72262;BME280;60173;52.112;8.648;2023-08-21T08:03:17;101356.84;;;21.70;69.90
72262;BME280;60173;52.112;8.648;2023-08-21T08:05:44;101354.66;;;21.63;69.59
72262;BME280;60173;52.112;8.648;2023-08-21T08:08:20;101354.16;;;21.46;69.31
72262;BME280;60173;52.112;8.648;2023-08-21T08:10:46;101357.28;;;21.44;68.85
72262;BME280;60173;52.112;8.648;2023-08-21T08:13:13;101361.41;;;21.50;69.25
72262;BME280;60173;52.112;8.648;2023-08-21T08:15:39;101359.78;;;21.77;67.13
72262;BME280;60173;52.112;8.648;2023-08-21T08:18:11;101373.91;;;21.88;64.90
72262;BME280;60173;52.112;8.648;2023-08-21T08:20:37;101370.94;;;22.09;65.20
72262;BME280;60173;52.112;8.648;2023-08-21T08:23:04;101367.22;;;22.17;62.95
72262;BME280;60173;52.112;8.648;2023-08-21T08:25:30;101362.59;;;22.37;63.10
72262;BME280;60173;52.112;8.648;2023-08-21T08:27:57;101367.22;;;22.33;64.04
72262;BME280;60173;52.112;8.648;2023-08-21T08:30:23;101361.19;;;22.43;65.33
72262;BME280;60173;52.112;8.648;2023-08-21T08:32:50;101358.22;;;22.52;65.68
72262;BME280;60173;52.112;8.648;2023-08-21T08:35:16;101359.22;;;22.44;63.92
72262;BME280;60173;52.112;8.648;2023-08-21T08:37:43;101356.09;;;22.45;64.08
72262;BME280;60173;52.112;8.648;2023-08-21T08:40:12;101349.47;;;22.34;65.46
72262;BME280;60173;52.112;8.648;2023-08-21T08:42:39;101339.84;;;22.28;65.57
72262;BME280;60173;52.112;8.648;2023-08-21T08:45:06;101337.25;;;22.19;66.39
72262;BME280;60173;52.112;8.648;2023-08-21T08:47:34;101346.53;;;22.43;66.28
72262;BME280;60173;52.112;8.648;2023-08-21T08:50:05;101356.34;;;22.40;66.49
72262;BME280;60173;52.112;8.648;2023-08-21T08:52:38;101356.63;;;22.35;66.92
72262;BME280;60173;52.112;8.648;2023-08-21T08:55:06;101351.94;;;22.71;66.19
72262;BME280;60173;52.112;8.648;2023-08-21T08:57:33;101355.81;;;22.66;67.13
72262;BME280;60173;52.112;8.648;2023-08-21T09:00:00;101354.88;;;23.10;61.58
72262;BME280;60173;52.112;8.648;2023-08-21T09:02:26;101349.59;;;23.79;63.37
72262;BME280;60173;52.112;8.648;2023-08-21T09:04:53;101345.94;;;23.75;59.34
72262;BME280;60173;52.112;8.648;2023-08-21T09:07:22;101334.09;;;24.20;57.95
72262;BME280;60173;52.112;8.648;2023-08-21T09:09:49;101340.28;;;24.10;59.74
72262;BME280;60173;52.112;8.648;2023-08-21T09:12:17;101335.22;;;23.93;57.21
72262;BME280;60173;52.112;8.648;2023-08-21T09:14:44;101342.13;;;23.24;58.57
72262;BME280;60173;52.112;8.648;2023-08-21T09:17:11;101341.53;;;23.15;60.06
72262;BME280;60173;52.112;8.648;2023-08-21T09:19:38;101339.00;;;23.26;58.05
72262;BME280;60173;52.112;8.648;2023-08-21T09:22:11;101337.66;;;23.20;58.58
72262;BME280;60173;52.112;8.648;2023-08-21T09:24:38;101334.47;;;23.37;59.28
72262;BME280;60173;52.112;8.648;2023-08-21T09:27:13;101326.16;;;23.96;58.49
72262;BME280;60173;52.112;8.648;2023-08-21T09:29:41;101327.59;;;23.89;55.21
72262;BME280;60173;52.112;8.648;2023-08-21T09:32:07;101322.88;;;23.90;58.11
72262;BME280;60173;52.112;8.648;2023-08-21T09:34:35;101336.66;;;23.86;58.53
72262;BME280;60173;52.112;8.648;2023-08-21T09:37:05;101329.16;;;24.56;54.58
72262;BME280;60173;52.112;8.648;2023-08-21T09:39:35;101327.63;;;24.35;54.01
72262;BME280;60173;52.112;8.648;2023-08-21T09:42:08;101332.28;;;25.04;52.89
72262;BME280;60173;52.112;8.648;2023-08-21T09:44:37;101326.56;;;24.67;54.55
72262;BME280;60173;52.112;8.648;2023-08-21T09:47:04;101323.78;;;24.93;51.97
72262;BME280;60173;52.112;8.648;2023-08-21T09:49:34;101324.06;;;25.11;52.40
72262;BME280;60173;52.112;8.648;2023-08-21T09:52:01;101324.84;;;24.58;55.38
72262;BME280;60173;52.112;8.648;2023-08-21T09:54:30;101323.78;;;24.67;55.22
72262;BME280;60173;52.112;8.648;2023-08-21T09:57:00;101322.22;;;24.43;54.89
72262;BME280;60173;52.112;8.648;2023-08-21T09:59:27;101320.03;;;24.55;53.42
72262;BME280;60173;52.112;8.648;2023-08-21T10:01:56;101321.19;;;25.08;52.74
72262;BME280;60173;52.112;8.648;2023-08-21T10:04:25;101324.00;;;24.54;53.71
72262;BME280;60173;52.112;8.648;2023-08-21T10:06:55;101332.69;;;24.30;54.05
72262;BME280;60173;52.112;8.648;2023-08-21T10:09:23;101334.56;;;24.22;55.53
72262;BME280;60173;52.112;8.648;2023-08-21T10:11:51;101328.44;;;24.36;55.16
72262;BME280;60173;52.112;8.648;2023-08-21T10:14:18;101326.09;;;24.15;55.31
72262;BME280;60173;52.112;8.648;2023-08-21T10:16:46;101322.47;;;24.57;56.30
72262;BME280;60173;52.112;8.648;2023-08-21T10:19:14;101323.19;;;25.07;52.43
72262;BME280;60173;52.112;8.648;2023-08-21T10:21:40;101309.94;;;25.23;54.63
72262;BME280;60173;52.112;8.648;2023-08-21T10:24:07;101305.59;;;25.26;52.26
72262;BME280;60173;52.112;8.648;2023-08-21T10:26:38;101311.41;;;24.61;55.25
72262;BME280;60173;52.112;8.648;2023-08-21T10:29:06;101302.44;;;24.71;53.30
72262;BME280;60173;52.112;8.648;2023-08-21T10:31:39;101311.44;;;25.51;51.80
72262;BME280;60173;52.112;8.648;2023-08-21T10:34:13;101325.56;;;25.69;52.54
72262;BME280;60173;52.112;8.648;2023-08-21T10:47:12;101307.06;;;24.90;56.72
72262;BME280;60173;52.112;8.648;2023-08-21T10:49:39;101308.34;;;24.96;54.53
72262;BME280;60173;52.112;8.648;2023-08-21T10:52:07;101296.06;;;24.44;54.06
72262;BME280;60173;52.112;8.648;2023-08-21T10:54:49;101305.91;;;24.41;57.62
72262;BME280;60173;52.112;8.648;2023-08-21T10:57:16;101306.94;;;25.09;54.49
72262;BME280;60173;52.112;8.648;2023-08-21T10:59:52;101305.44;;;24.85;54.98
72262;BME280;60173;52.112;8.648;2023-08-21T11:02:19;101306.81;;;25.02;54.58
72262;BME280;60173;52.112;8.648;2023-08-21T11:04:46;101314.56;;;24.13;56.39
72262;BME280;60173;52.112;8.648;2023-08-21T11:07:12;101304.88;;;24.49;57.43
72262;BME280;60173;52.112;8.648;2023-08-21T11:09:39;101290.59;;;24.24;56.72
72262;BME280;60173;52.112;8.648;2023-08-21T11:12:08;101304.63;;;24.58;56.89
72262;BME280;60173;52.112;8.648;2023-08-21T11:14:35;101309.97;;;24.97;53.69
72262;BME280;60173;52.112;8.648;2023-08-21T11:17:01;101308.28;;;25.19;53.85
72262;BME280;60173;52.112;8.648;2023-08-21T11:19:30;101309.47;;;24.91;56.65
72262;BME280;60173;52.112;8.648;2023-08-21T11:21:57;101315.84;;;24.65;53.27
72262;BME280;60173;52.112;8.648;2023-08-21T11:24:30;101311.91;;;24.43;54.11
72262;BME280;60173;52.112;8.648;2023-08-21T11:26:56;101320.38;;;24.50;54.29
72262;BME280;60173;52.112;8.648;2023-08-21T11:29:22;101312.75;;;25.61;56.91
72262;BME280;60173;52.112;8.648;2023-08-21T11:31:49;101317.13;;;25.96;52.33
72262;BME280;60173;52.112;8.648;2023-08-21T11:34:19;101315.38;;;26.21;52.21
72262;BME280;60173;52.112;8.648;2023-08-21T11:36:49;101311.47;;;25.85;51.33
72262;BME280;60173;52.112;8.648;2023-08-21T11:39:16;101311.94;;;25.94;53.87
72262;BME280;60173;52.112;8.648;2023-08-21T11:41:58;101309.69;;;25.69;52.37
72262;BME280;60173;52.112;8.648;2023-08-21T11:44:24;101301.66;;;25.61;51.88
72262;BME280;60173;52.112;8.648;2023-08-21T11:46:51;101304.63;;;26.20;54.45
72262;BME280;60173;52.112;8.648;2023-08-21T11:49:18;101293.63;;;25.22;54.89
72262;BME280;60173;52.112;8.648;2023-08-21T11:51:46;101291.44;;;25.08;53.25
72262;BME280;60173;52.112;8.648;2023-08-21T11:54:12;101277.72;;;24.92;55.05
72262;BME280;60173;52.112;8.648;2023-08-21T11:56:39;101292.81;;;25.52;54.17
72262;BME280;60173;52.112;8.648;2023-08-21T11:59:05;101285.25;;;25.18;54.18
72262;BME280;60173;52.112;8.648;2023-08-21T12:01:35;101288.25;;;25.74;54.88
72262;BME280;60173;52.112;8.648;2023-08-21T12:04:14;101287.59;;;25.84;55.19
72262;BME280;60173;52.112;8.648;2023-08-21T12:06:44;101286.06;;;25.90;52.80
72262;BME280;60173;52.112;8.648;2023-08-21T12:09:10;101289.09;;;25.78;53.29
72262;BME280;60173;52.112;8.648;2023-08-21T12:11:37;101287.47;;;25.39;53.79
72262;BME280;60173;52.112;8.648;2023-08-21T12:14:06;101290.31;;;25.43;55.12
72262;BME280;60173;52.112;8.648;2023-08-21T12:16:33;101291.47;;;24.81;54.50
72262;BME280;60173;52.112;8.648;2023-08-21T12:18:59;101282.72;;;25.10;54.95
72262;BME280;60173;52.112;8.648;2023-08-21T12:21:26;101283.84;;;25.32;55.68
72262;BME280;60173;52.112;8.648;2023-08-21T12:23:52;101288.97;;;25.30;55.89
72262;BME280;60173;52.112;8.648;2023-08-21T12:26:18;101295.38;;;25.07;55.11
72262;BME280;60173;52.112;8.648;2023-08-21T12:28:45;101300.72;;;25.19;55.13
72262;BME280;60173;52.112;8.648;2023-08-21T12:31:11;101291.91;;;25.44;55.06
72262;BME280;60173;52.112;8.648;2023-08-21T12:33:37;101286.56;;;25.65;53.07
72262;BME280;60173;52.112;8.648;2023-08-21T12:36:04;101293.00;;;26.10;52.94
72262;BME280;60173;52.112;8.648;2023-08-21T12:38:30;101284.53;;;27.10;49.83
72262;BME280;60173;52.112;8.648;2023-08-21T12:40:57;101280.16;;;27.13;51.01
72262;BME280;60173;52.112;8.648;2023-08-21T12:43:24;101285.81;;;26.54;53.23
72262;BME280;60173;52.112;8.648;2023-08-21T12:45:50;101286.78;;;26.28;51.28
72262;BME280;60173;52.112;8.648;2023-08-21T12:48:16;101287.59;;;26.83;52.29
72262;BME280;60173;52.112;8.648;2023-08-21T12:50:43;101278.69;;;27.33;51.12
72262;BME280;60173;52.112;8.648;2023-08-21T12:53:09;101285.25;;;26.93;50.24
72262;BME280;60173;52.112;8.648;2023-08-21T12:55:36;101273.97;;;25.75;53.41
72262;BME280;60173;52.112;8.648;2023-08-21T12:58:02;101272.41;;;25.10;53.53
72262;BME280;60173;52.112;8.648;2023-08-21T13:00:29;101269.44;;;24.96;55.76
72262;BME280;60173;52.112;8.648;2023-08-21T13:02:55;101265.88;;;25.25;55.42